Humboldt, AZ (86329)

10:51 PM MST on December 04, 2016 (GMT -0700)
Humboldt | | Change Station

Elev 4482 ft 34.50 °N, 112.23 °W | Updated 22 seconds ago

Clear
Clear
26.4 °F
Feels Like 26 °F
N
0.0
Wind Variable Wind from SSW
Gusts 0.0 mph

Today
High -- | Low -- °F
--% Chance of Precip.
Yesterday
High -- | Low -- °F
Precip. -- in
Pressure 30.01 in
Visibility 10.0 miles
Clouds Clear
Windchill 26 °F
Dew Point 21 °F
Humidity 79%
Rainfall 0.00 in
Snow Depth Not available.
7:20 AM 5:18 PM
Waxing Crescent, 28% visible
METAR KPRC 050453Z AUTO 20006KT 10SM CLR 02/M07 A3005 RMK AO2 SLP160 T00171072
Pressure 30.01 in
Visibility 10.0 miles
Clouds Clear
Windchill 26 °F
Dew Point 21 °F
Humidity 79%
Rainfall 0.00 in
Snow Depth Not available.
7:20 AM 5:18 PM
Waxing Crescent, 28% visible
METAR KPRC 050453Z AUTO 20006KT 10SM CLR 02/M07 A3005 RMK AO2 SLP160 T00171072

10-Day Weather Forecast

Almanac

Astronomy

Dec. 04, 2016 Rise Set
Actual Time
Civil Twilight
Nautical Twilight
Astronomical Twilight
Moon
Length of Visible Light
Length of Day
Tomorrow will be .
, % of the Moon is Illuminated

Today's Extremes

State Highs State Lows

Community

WunderPhotos

Upload Photos

1,955,770 photos uploaded!

WunderBlog® & News

Nearby

Air Quality

  Air Quality AQ Index Pollutant
Not available.

Snow Depth

Station Depth Elevation

Earthquake Activity

City Distance Mag. Time & Date
Minimum magnitude displayed is 2.5.

Coastal Water Temperatures

Place Temperature

Stations

Nearby Weather Stations

Station Location Temp. Windchill Dew Point Humidity Wind Precip. Elev Updated Type
                   

Watches & Warnings

There are currently no watches in effect.